createdAt,value
2018-03-24T00:00:25.489Z,27.03
2018-03-24T00:02:53.319Z,26.17
2018-03-24T00:05:21.743Z,25.17
2018-03-24T00:07:50.699Z,26.13
2018-03-24T00:10:18.384Z,24.77
2018-03-24T00:12:46.718Z,24.80
2018-03-24T00:15:15.174Z,26.13
2018-03-24T00:17:43.603Z,23.40
2018-03-24T00:20:11.262Z,25.87
2018-03-24T00:22:38.940Z,28.83
2018-03-24T00:25:06.582Z,24.40
2018-03-24T00:27:34.241Z,26.90
2018-03-24T00:30:01.904Z,24.63
2018-03-24T00:32:29.541Z,24.17
2018-03-24T00:34:57.957Z,23.07
2018-03-24T00:37:25.590Z,24.53
2018-03-24T00:39:53.991Z,24.73
2018-03-24T00:42:21.576Z,25.17
2018-03-24T00:44:49.208Z,26.07
2018-03-24T00:47:16.850Z,26.03
2018-03-24T00:49:45.262Z,21.90
2018-03-24T00:52:12.878Z,22.23
2018-03-24T00:54:40.546Z,24.80
2018-03-24T00:57:08.917Z,21.53
2018-03-24T00:59:37.304Z,21.73
2018-03-24T01:02:04.967Z,24.57
2018-03-24T01:04:32.563Z,21.70
2018-03-24T01:07:00.171Z,22.90
2018-03-24T01:09:28.594Z,21.57
2018-03-24T01:11:56.234Z,23.53
2018-03-24T01:14:23.925Z,23.17
2018-03-24T01:16:51.596Z,20.87
2018-03-24T01:19:20.517Z,21.67
2018-03-24T01:21:49.539Z,22.00
2018-03-24T01:24:17.214Z,20.70
2018-03-24T01:26:44.821Z,20.57
2018-03-24T01:29:12.557Z,17.40
2018-03-24T01:31:40.246Z,17.30
2018-03-24T01:34:08.008Z,22.50
2018-03-24T01:36:35.621Z,21.87
2018-03-24T01:39:03.249Z,19.97
2018-03-24T01:41:36.536Z,19.67
2018-03-24T01:44:04.959Z,20.07
2018-03-24T01:46:32.603Z,19.27
2018-03-24T01:49:00.221Z,20.67
2018-03-24T01:51:29.371Z,19.60
2018-03-24T01:53:57.056Z,20.17
2018-03-24T01:56:24.655Z,19.03
2018-03-24T01:58:54.843Z,19.10
2018-03-24T02:01:24.000Z,20.07
2018-03-24T02:03:51.608Z,19.77
2018-03-24T02:06:20.774Z,20.73
2018-03-24T02:08:48.393Z,19.53
2018-03-24T02:11:16.810Z,20.37
2018-03-24T02:13:44.431Z,19.27
2018-03-24T02:16:12.857Z,19.97
2018-03-24T02:18:40.619Z,20.40
2018-03-24T02:21:10.762Z,18.03
2018-03-24T02:23:38.409Z,17.70
2018-03-24T02:26:06.061Z,22.47
2018-03-24T02:28:33.796Z,18.03
2018-03-24T02:31:01.442Z,19.70
2018-03-24T02:33:29.892Z,18.30
2018-03-24T02:35:58.270Z,17.07
2018-03-24T02:38:25.980Z,18.50
2018-03-24T02:40:53.594Z,18.60
2018-03-24T02:43:21.524Z,18.03
2018-03-24T02:45:49.329Z,18.73
2018-03-24T02:48:16.934Z,18.27
2018-03-24T02:50:44.554Z,18.57
2018-03-24T02:53:12.213Z,19.07
2018-03-24T02:55:40.636Z,18.57
2018-03-24T02:58:08.317Z,19.70
2018-03-24T03:00:36.566Z,17.50
2018-03-24T03:03:04.170Z,18.90
2018-03-24T03:05:31.778Z,17.33
2018-03-24T03:07:59.416Z,17.13
2018-03-24T03:10:27.872Z,18.03
2018-03-24T03:12:55.482Z,18.77
2018-03-24T03:15:23.333Z,17.60
2018-03-24T03:17:51.883Z,18.83
2018-03-24T03:20:19.511Z,20.50
2018-03-24T03:22:47.342Z,20.00
2018-03-24T03:25:15.738Z,19.43
2018-03-24T03:27:43.422Z,18.80
2018-03-24T03:33:16.085Z,20.17
2018-03-24T03:35:43.719Z,19.17
2018-03-24T03:38:11.306Z,20.40
2018-03-24T03:40:38.958Z,17.67
2018-03-24T03:43:07.371Z,21.10
2018-03-24T03:45:34.999Z,18.33
2018-03-24T03:48:03.419Z,20.10
2018-03-24T03:50:31.036Z,19.67
2018-03-24T03:52:59.390Z,20.10
2018-03-24T03:55:27.010Z,21.23
2018-03-24T03:57:54.613Z,19.67
2018-03-24T04:00:23.026Z,19.10
2018-03-24T04:02:50.659Z,19.97
2018-03-24T04:05:19.033Z,21.53
2018-03-24T04:07:47.442Z,19.33
2018-03-24T04:10:15.059Z,18.23
2018-03-24T04:12:42.646Z,18.60
2018-03-24T04:15:11.014Z,21.50
2018-03-24T04:17:39.402Z,18.07
2018-03-24T04:20:07.771Z,19.63
2018-03-24T04:22:36.148Z,16.40
2018-03-24T04:25:04.556Z,19.90
2018-03-24T04:27:32.144Z,20.83
2018-03-24T04:29:59.734Z,21.83
2018-03-24T04:32:27.338Z,19.27
2018-03-24T04:34:54.973Z,21.03
2018-03-24T04:37:23.479Z,20.43
2018-03-24T04:39:51.145Z,23.13
2018-03-24T04:42:18.815Z,20.07
2018-03-24T04:44:46.403Z,20.83
2018-03-24T04:47:14.092Z,22.90
2018-03-24T04:49:42.490Z,21.10
2018-03-24T04:52:11.030Z,22.30
2018-03-24T04:54:38.657Z,21.80
2018-03-24T04:57:06.274Z,22.83
2018-03-24T04:59:33.907Z,24.10
2018-03-24T05:02:01.554Z,22.87
2018-03-24T05:04:29.171Z,22.73
2018-03-24T05:06:56.780Z,20.77
2018-03-24T05:09:24.740Z,23.40
2018-03-24T05:11:52.395Z,21.17
2018-03-24T05:14:20.024Z,21.30
2018-03-24T05:16:47.615Z,20.60
2018-03-24T05:19:15.894Z,22.50
2018-03-24T05:21:43.618Z,22.13
2018-03-24T05:24:11.927Z,22.23
2018-03-24T05:26:39.667Z,22.27
2018-03-24T05:29:07.253Z,22.67
2018-03-24T05:31:34.851Z,21.37
2018-03-24T05:34:03.273Z,23.23
2018-03-24T05:36:30.902Z,20.50
2018-03-24T05:38:59.283Z,21.10
2018-03-24T05:41:26.970Z,22.47
2018-03-24T05:43:54.694Z,22.57
2018-03-24T05:46:23.242Z,23.93
2018-03-24T05:48:50.952Z,23.47
2018-03-24T05:51:18.626Z,22.13
2018-03-24T05:53:46.306Z,22.07
2018-03-24T05:56:14.139Z,21.23
2018-03-24T05:58:41.818Z,21.40
2018-03-24T06:01:09.501Z,21.03
2018-03-24T06:03:37.135Z,21.53
2018-03-24T06:06:04.783Z,21.23
2018-03-24T06:08:32.409Z,20.17
2018-03-24T06:11:00.025Z,21.00
2018-03-24T06:13:27.653Z,19.57
2018-03-24T06:15:56.056Z,20.27
2018-03-24T06:18:23.680Z,22.20
2018-03-24T06:20:52.073Z,21.63
2018-03-24T06:23:20.528Z,22.63
2018-03-24T06:25:48.164Z,21.30
2018-03-24T06:28:15.776Z,24.33
2018-03-24T06:30:46.097Z,20.97
2018-03-24T06:33:14.531Z,21.50
2018-03-24T06:35:42.126Z,22.53
2018-03-24T06:38:10.552Z,20.03
2018-03-24T06:40:38.173Z,21.37
2018-03-24T06:43:05.827Z,21.50
2018-03-24T06:45:34.217Z,21.57
2018-03-24T06:48:02.578Z,19.17
2018-03-24T06:50:30.940Z,19.73
2018-03-24T06:52:58.547Z,19.30
2018-03-24T06:55:26.191Z,19.73
2018-03-24T06:57:53.781Z,18.37
2018-03-24T07:00:21.383Z,23.73
2018-03-24T07:02:49.066Z,19.57
2018-03-24T07:05:17.424Z,22.97
2018-03-24T07:07:45.894Z,25.03
2018-03-24T07:10:13.536Z,20.40
2018-03-24T07:12:41.146Z,25.23
2018-03-24T07:15:09.576Z,20.87
2018-03-24T07:17:37.244Z,19.63
2018-03-24T07:20:05.439Z,20.93
2018-03-24T07:22:33.066Z,20.20
2018-03-24T07:25:00.720Z,18.93
2018-03-24T07:27:28.370Z,21.57
2018-03-24T07:29:55.976Z,24.87
2018-03-24T07:32:23.621Z,20.73
2018-03-24T07:34:51.245Z,25.40
2018-03-24T07:37:18.862Z,18.73
2018-03-24T07:39:47.304Z,17.63
2018-03-24T07:42:15.688Z,20.73
2018-03-24T07:44:43.307Z,19.93
2018-03-24T07:47:10.950Z,21.03
2018-03-24T07:49:39.381Z,21.20
2018-03-24T07:52:07.019Z,17.53
2018-03-24T07:54:34.683Z,19.27
2018-03-24T07:57:02.291Z,18.97
2018-03-24T07:59:31.542Z,20.23
2018-03-24T08:01:59.153Z,17.13
2018-03-24T08:04:26.824Z,17.90
2018-03-24T08:06:55.248Z,15.53
2018-03-24T08:09:22.903Z,17.70
2018-03-24T08:11:51.226Z,17.93
2018-03-24T08:14:19.673Z,17.17
2018-03-24T08:16:47.663Z,18.53
2018-03-24T08:19:16.034Z,18.70
2018-03-24T08:21:44.729Z,21.03
2018-03-24T08:24:12.391Z,18.47
2018-03-24T08:26:40.015Z,17.10
2018-03-24T08:29:09.862Z,19.10
2018-03-24T08:31:38.283Z,18.10
2018-03-24T08:34:07.795Z,20.30
2018-03-24T08:36:35.422Z,16.50
2018-03-24T08:39:03.838Z,20.90
2018-03-24T08:41:31.464Z,22.77
2018-03-24T08:43:59.105Z,21.07
2018-03-24T08:46:26.746Z,18.83
2018-03-24T08:48:55.060Z,19.50
2018-03-24T08:51:23.493Z,15.47
2018-03-24T08:53:51.267Z,15.90
2018-03-24T08:56:18.878Z,16.57
2018-03-24T08:58:49.254Z,19.17
2018-03-24T09:01:17.290Z,19.30
2018-03-24T09:03:44.923Z,21.07
2018-03-24T09:06:13.605Z,18.13
2018-03-24T09:08:41.282Z,15.10
2018-03-24T09:11:08.989Z,19.70
2018-03-24T09:13:36.592Z,16.23
2018-03-24T09:16:05.091Z,13.73
2018-03-24T09:18:32.745Z,17.90
2018-03-24T09:21:00.473Z,16.63
2018-03-24T09:23:28.086Z,17.70
2018-03-24T09:25:55.732Z,16.93
2018-03-24T09:28:25.710Z,14.50
2018-03-24T09:30:53.340Z,16.83
2018-03-24T09:33:21.003Z,18.00
2018-03-24T09:35:49.544Z,19.07
2018-03-24T09:38:17.946Z,16.93
2018-03-24T09:40:45.596Z,16.27
2018-03-24T09:43:13.297Z,14.97
2018-03-24T09:45:41.074Z,15.53
2018-03-24T09:48:08.664Z,15.63
2018-03-24T09:50:37.032Z,17.17
2018-03-24T09:53:05.469Z,15.90
2018-03-24T09:55:33.369Z,20.60
2018-03-24T09:58:01.082Z,15.77
2018-03-24T10:00:28.806Z,18.47
2018-03-24T10:02:58.238Z,23.13
2018-03-24T10:05:25.969Z,21.53
2018-03-24T10:07:53.770Z,17.33
2018-03-24T10:10:21.518Z,24.97
2018-03-24T10:12:49.216Z,22.00
2018-03-24T10:15:16.919Z,23.17
2018-03-24T10:17:45.333Z,19.57
2018-03-24T10:20:12.956Z,16.60
2018-03-24T10:23:01.423Z,17.90
2018-03-24T10:25:29.833Z,20.53
2018-03-24T10:27:57.451Z,20.87
2018-03-24T10:30:26.219Z,18.63
2018-03-24T10:32:53.831Z,19.43
2018-03-24T10:35:21.494Z,20.73
2018-03-24T10:37:55.020Z,20.30
2018-03-24T10:40:22.664Z,21.50
2018-03-24T10:42:55.920Z,16.30
2018-03-24T10:45:25.043Z,19.97
2018-03-24T10:47:52.996Z,17.83
2018-03-24T10:50:20.620Z,15.33
2018-03-24T10:52:48.446Z,17.47
2018-03-24T10:55:16.068Z,17.50
2018-03-24T10:57:44.448Z,18.70
2018-03-24T11:00:12.866Z,16.70
2018-03-24T11:02:40.670Z,16.63
2018-03-24T11:05:09.386Z,16.70
2018-03-24T11:07:37.093Z,15.77
2018-03-24T11:10:04.723Z,19.90
2018-03-24T11:12:32.350Z,18.17
2018-03-24T11:15:00.754Z,20.23
2018-03-24T11:17:28.358Z,15.23
2018-03-24T11:19:55.971Z,18.57
2018-03-24T11:22:23.710Z,19.93
2018-03-24T11:24:53.083Z,19.90
2018-03-24T11:27:20.702Z,15.17
2018-03-24T11:29:48.700Z,14.30
2018-03-24T11:32:16.576Z,15.13
2018-03-24T11:34:44.230Z,15.50
2018-03-24T11:37:11.826Z,13.07
2018-03-24T11:39:40.185Z,15.67
2018-03-24T11:42:07.813Z,15.50
2018-03-24T11:44:35.412Z,18.20
2018-03-24T11:47:03.910Z,16.17
2018-03-24T11:49:32.455Z,15.20
2018-03-24T11:52:00.118Z,19.63
2018-03-24T11:54:39.482Z,17.10
2018-03-24T11:57:07.875Z,16.03
2018-03-24T11:59:35.542Z,20.10
2018-03-24T12:02:03.965Z,19.37
2018-03-24T12:04:31.612Z,13.27
2018-03-24T12:06:59.266Z,14.30
2018-03-24T12:09:26.859Z,13.70
2018-03-24T12:11:55.447Z,15.37
2018-03-24T12:14:23.620Z,13.67
2018-03-24T12:16:52.247Z,15.77
2018-03-24T12:19:19.876Z,13.57
2018-03-24T12:21:48.278Z,14.87
2018-03-24T12:24:15.896Z,13.77
2018-03-24T12:26:43.534Z,15.97
2018-03-24T12:29:11.126Z,10.87
2018-03-24T12:31:38.756Z,13.07
2018-03-24T12:34:07.168Z,11.43
2018-03-24T12:36:34.789Z,13.97
2018-03-24T12:39:02.387Z,14.17
2018-03-24T12:41:30.027Z,12.83
2018-03-24T12:43:58.397Z,16.40
2018-03-24T12:46:26.045Z,14.27
2018-03-24T12:48:53.737Z,12.60
2018-03-24T12:51:21.347Z,14.13
2018-03-24T12:53:48.958Z,13.70
2018-03-24T12:56:16.622Z,17.30
2018-03-24T12:58:44.351Z,13.27
2018-03-24T13:01:11.962Z,13.73
2018-03-24T13:03:40.404Z,14.60
2018-03-24T13:06:08.001Z,14.57
2018-03-24T13:08:36.450Z,15.10
2018-03-24T13:11:04.151Z,14.50
2018-03-24T13:13:31.773Z,15.03
2018-03-24T13:15:59.410Z,12.97
2018-03-24T13:18:27.041Z,16.00
2018-03-24T13:20:54.634Z,14.93
2018-03-24T13:23:22.229Z,15.47
2018-03-24T13:25:49.896Z,14.70
2018-03-24T13:28:17.517Z,15.53
2018-03-24T13:30:45.138Z,15.63
2018-03-24T13:33:13.530Z,15.30
2018-03-24T13:35:41.148Z,15.17
2018-03-24T13:38:08.812Z,14.80
2018-03-24T13:40:37.216Z,14.07
2018-03-24T13:43:05.588Z,14.67
2018-03-24T13:45:33.993Z,14.23
2018-03-24T13:48:01.634Z,14.60
2018-03-24T13:50:29.365Z,14.83
2018-03-24T13:52:58.570Z,17.60
2018-03-24T13:55:26.990Z,14.30
2018-03-24T13:57:54.611Z,14.40
2018-03-24T14:00:22.252Z,15.50
2018-03-24T14:02:49.862Z,15.30
2018-03-24T14:05:17.471Z,13.87
2018-03-24T14:07:45.103Z,13.43
2018-03-24T14:10:12.892Z,15.73
2018-03-24T14:12:40.515Z,14.43
2018-03-24T14:15:08.172Z,14.10
2018-03-24T14:17:35.817Z,13.67
2018-03-24T14:20:03.413Z,14.43
2018-03-24T14:22:31.625Z,13.90
2018-03-24T14:24:59.846Z,16.90
2018-03-24T14:27:28.321Z,20.93
2018-03-24T14:29:55.927Z,14.57
2018-03-24T14:32:23.567Z,15.10
2018-03-24T14:34:51.407Z,15.60
2018-03-24T14:37:19.078Z,16.93
2018-03-24T14:39:47.514Z,16.60
2018-03-24T14:42:15.886Z,16.83
2018-03-24T14:44:43.903Z,16.33
2018-03-24T14:47:11.542Z,17.50
2018-03-24T14:49:39.144Z,17.23
2018-03-24T14:52:06.757Z,17.97
2018-03-24T14:54:34.417Z,17.37
2018-03-24T14:57:02.807Z,18.80
2018-03-24T14:59:30.399Z,18.20
2018-03-24T15:01:58.120Z,19.00
2018-03-24T15:04:25.802Z,18.33
2018-03-24T15:06:53.667Z,17.03
2018-03-24T15:09:21.300Z,19.63
2018-03-24T15:11:49.714Z,17.93
2018-03-24T15:14:17.360Z,17.77
2018-03-24T15:16:45.275Z,16.13
2018-03-24T15:19:12.895Z,19.70
2018-03-24T15:21:41.247Z,17.90
2018-03-24T15:24:08.899Z,17.23
2018-03-24T15:26:37.282Z,17.50
2018-03-24T15:29:17.755Z,16.53
2018-03-24T15:31:57.246Z,19.40
2018-03-24T15:34:36.800Z,18.63
2018-03-24T15:37:05.266Z,17.33
2018-03-24T15:39:32.975Z,17.87
2018-03-24T15:42:00.653Z,16.37
2018-03-24T15:44:28.250Z,18.80
2018-03-24T15:46:55.913Z,18.53
2018-03-24T15:49:24.312Z,20.00
2018-03-24T15:51:52.741Z,24.50
2018-03-24T15:54:20.338Z,18.60
2018-03-24T15:56:47.948Z,19.50
2018-03-24T15:59:15.578Z,19.33
2018-03-24T16:01:43.980Z,20.30
2018-03-24T16:04:11.594Z,19.27
2018-03-24T16:06:39.967Z,20.57
2018-03-24T16:09:07.603Z,19.17
2018-03-24T16:11:35.247Z,21.53
2018-03-24T16:14:02.875Z,19.93
2018-03-24T16:16:31.323Z,18.47
2018-03-24T16:18:58.947Z,18.10
2018-03-24T16:21:26.690Z,19.57
2018-03-24T16:23:54.294Z,20.60
2018-03-24T16:26:21.902Z,20.83
2018-03-24T16:28:49.531Z,20.30
2018-03-24T16:31:17.127Z,19.87
2018-03-24T16:33:46.566Z,18.97
2018-03-24T16:36:14.175Z,17.27
2018-03-24T16:38:42.559Z,18.40
2018-03-24T16:41:10.978Z,19.57
2018-03-24T16:43:38.572Z,19.53
2018-03-24T16:46:06.307Z,19.40
2018-03-24T16:48:33.967Z,19.03
2018-03-24T16:51:01.571Z,18.73
2018-03-24T16:53:29.948Z,21.03
2018-03-24T16:55:58.366Z,20.33
2018-03-24T16:58:25.950Z,20.20
2018-03-24T17:00:53.607Z,20.37
2018-03-24T17:03:21.229Z,23.17
2018-03-24T17:05:48.861Z,21.27
2018-03-24T17:08:17.255Z,21.93
2018-03-24T17:10:45.647Z,22.53
2018-03-24T17:13:13.305Z,22.57
2018-03-24T17:15:40.916Z,21.13
2018-03-24T17:18:08.538Z,20.23
2018-03-24T17:20:36.184Z,23.73
2018-03-24T17:23:03.765Z,23.77
2018-03-24T17:25:31.403Z,22.00
2018-03-24T17:28:00.263Z,23.73
2018-03-24T17:30:27.883Z,23.60
2018-03-24T17:32:56.093Z,23.30
2018-03-24T17:35:23.744Z,22.03
2018-03-24T17:37:51.373Z,26.00
2018-03-24T17:40:18.998Z,26.77
2018-03-24T17:42:47.417Z,26.33
2018-03-24T17:45:15.752Z,25.77
2018-03-24T17:47:44.153Z,26.50
2018-03-24T17:50:12.449Z,26.33
2018-03-24T17:52:40.053Z,24.30
2018-03-24T17:55:07.891Z,27.70
2018-03-24T17:57:35.504Z,26.07
2018-03-24T18:00:03.134Z,25.03
2018-03-24T18:02:31.571Z,30.67
2018-03-24T18:04:59.170Z,24.33
2018-03-24T18:07:26.768Z,27.00
2018-03-24T18:09:54.770Z,24.53
2018-03-24T18:12:22.377Z,25.83
2018-03-24T18:14:50.824Z,26.10
2018-03-24T18:17:18.450Z,27.40
2018-03-24T18:19:46.195Z,28.37
2018-03-24T18:22:13.838Z,28.90
2018-03-24T18:24:42.205Z,27.93
2018-03-24T18:27:10.620Z,27.40
2018-03-24T18:29:38.210Z,26.80
2018-03-24T18:32:05.865Z,30.97
2018-03-24T18:34:33.526Z,29.27
2018-03-24T18:37:01.135Z,28.73
2018-03-24T18:39:29.544Z,30.33
2018-03-24T18:41:57.177Z,32.30
2018-03-24T18:44:25.561Z,32.40
2018-03-24T18:46:53.961Z,34.47
2018-03-24T18:49:21.766Z,31.30
2018-03-24T18:51:50.022Z,36.33
2018-03-24T18:54:17.647Z,32.07
2018-03-24T18:56:46.036Z,32.40
2018-03-24T18:59:13.651Z,31.10
2018-03-24T19:01:41.305Z,31.53
2018-03-24T19:04:08.928Z,32.53
2018-03-24T19:06:36.590Z,31.80
2018-03-24T19:09:04.186Z,33.63
2018-03-24T19:11:32.634Z,34.00
2018-03-24T19:14:00.240Z,31.40
2018-03-24T19:16:28.599Z,29.30
2018-03-24T19:18:58.767Z,32.73
2018-03-24T19:21:26.372Z,30.87
2018-03-24T19:23:55.040Z,34.50
2018-03-24T19:26:22.646Z,29.37
2018-03-24T19:28:50.262Z,31.00
2018-03-24T19:31:17.921Z,29.80
2018-03-24T19:33:45.511Z,33.97
2018-03-24T19:36:13.147Z,35.87
2018-03-24T19:38:40.769Z,31.47
2018-03-24T19:41:08.391Z,29.13
2018-03-24T19:43:36.028Z,32.57
2018-03-24T19:46:03.707Z,31.17
2018-03-24T19:48:31.314Z,32.20
2018-03-24T19:50:58.982Z,30.53
2018-03-24T19:53:27.169Z,30.77
2018-03-24T19:55:54.773Z,30.77
2018-03-24T19:58:22.407Z,31.63
2018-03-24T20:00:50.003Z,33.17
2018-03-24T20:03:18.432Z,30.80
2018-03-24T20:05:46.053Z,31.97
2018-03-24T20:08:13.749Z,33.97
2018-03-24T20:10:41.365Z,32.00
2018-03-24T20:13:09.894Z,32.77
2018-03-24T20:15:37.500Z,33.37
2018-03-24T20:18:05.859Z,32.60
2018-03-24T20:20:33.518Z,32.83
2018-03-24T20:23:01.115Z,30.63
2018-03-24T20:25:28.712Z,30.47
2018-03-24T20:27:56.348Z,30.77
2018-03-24T20:30:24.373Z,31.87
2018-03-24T20:32:51.979Z,31.23
2018-03-24T20:35:19.608Z,31.80
2018-03-24T20:37:47.992Z,35.77
2018-03-24T20:40:16.467Z,33.10
2018-03-24T20:42:44.872Z,34.07
2018-03-24T20:45:12.479Z,34.27
2018-03-24T20:47:40.092Z,32.83
2018-03-24T20:50:07.879Z,32.73
2018-03-24T20:52:36.110Z,32.23
2018-03-24T20:55:04.507Z,33.57
2018-03-24T20:57:32.158Z,32.70
2018-03-24T20:59:59.813Z,31.57
2018-03-24T21:02:28.190Z,27.17
2018-03-24T21:04:56.558Z,31.40
2018-03-24T21:07:24.232Z,31.57
2018-03-24T21:09:51.823Z,34.87
2018-03-24T21:12:19.546Z,31.97
2018-03-24T21:14:48.031Z,30.53
2018-03-24T21:17:15.669Z,30.53
2018-03-24T21:19:43.294Z,33.03
2018-03-24T21:22:10.897Z,32.33
2018-03-24T21:24:39.295Z,31.80
2018-03-24T21:27:07.885Z,31.23
2018-03-24T21:29:35.517Z,30.73
2018-03-24T21:32:03.942Z,29.83
2018-03-24T21:34:31.565Z,31.43
2018-03-24T21:36:59.932Z,32.73
2018-03-24T21:39:28.339Z,31.00
2018-03-24T21:41:55.940Z,31.80
2018-03-24T21:44:23.569Z,32.07
2018-03-24T21:46:51.198Z,29.07
2018-03-24T21:49:19.576Z,33.50
2018-03-24T21:51:47.977Z,32.97
2018-03-24T21:54:15.637Z,29.07
2018-03-24T21:56:43.227Z,28.60
2018-03-24T21:59:10.850Z,30.83
2018-03-24T22:01:38.527Z,31.13
2018-03-24T22:04:06.148Z,30.73
2018-03-24T22:06:33.767Z,32.93
2018-03-24T22:09:01.451Z,31.37
2018-03-24T22:11:29.048Z,33.73
2018-03-24T22:13:57.451Z,29.90
2018-03-24T22:16:25.076Z,29.20
2018-03-24T22:18:53.707Z,29.20
2018-03-24T22:21:21.319Z,32.50
2018-03-24T22:23:49.684Z,29.53
2018-03-24T22:26:17.534Z,29.50
2018-03-24T22:28:45.168Z,31.43
2018-03-24T22:31:13.020Z,31.13
2018-03-24T22:33:40.689Z,34.87
2018-03-24T22:36:08.298Z,32.13
2018-03-24T22:38:35.927Z,38.03
2018-03-24T22:41:03.581Z,34.03
2018-03-24T22:43:31.449Z,37.90
2018-03-24T22:45:59.074Z,32.93
2018-03-24T22:48:27.458Z,33.53
2018-03-24T22:50:55.083Z,33.20
2018-03-24T22:53:23.505Z,33.17
2018-03-24T22:55:51.263Z,33.00
2018-03-24T22:58:19.669Z,31.53
2018-03-24T23:00:47.281Z,30.83
2018-03-24T23:03:15.690Z,29.97
2018-03-24T23:05:43.297Z,29.47
2018-03-24T23:08:10.897Z,30.20
2018-03-24T23:10:38.556Z,29.30
2018-03-24T23:13:06.265Z,29.00
2018-03-24T23:15:33.915Z,32.73
2018-03-24T23:18:01.544Z,30.80
2018-03-24T23:20:29.358Z,30.23
2018-03-24T23:22:57.020Z,36.17
2018-03-24T23:25:24.695Z,38.00
2018-03-24T23:27:53.073Z,34.50
2018-03-24T23:30:20.734Z,39.33
2018-03-24T23:32:48.354Z,32.53
2018-03-24T23:35:15.970Z,38.43
2018-03-24T23:37:44.402Z,49.67
2018-03-24T23:40:12.020Z,45.03
2018-03-24T23:42:39.790Z,36.57
2018-03-24T23:45:07.388Z,30.90
2018-03-24T23:47:35.002Z,41.17
2018-03-24T23:50:02.704Z,37.47
2018-03-24T23:52:30.330Z,33.27
2018-03-24T23:54:57.947Z,40.83
2018-03-24T23:57:25.590Z,40.37
2018-03-24T23:59:53.278Z,38.20
